الصفحة الرئيسية
METAR-TAF:

METAR-TAF

مطار :

كيرنز, أستراليا

دائرة عرض: 16-53S, خط طول: 145-45E, ارتفاع: 3 متر

مراقبة الطقس الحالي

تاريخ ووقت الإصدار 25 دقيقة قبل الساعة 18:30UTC
ريح 3 عقدة من الغرب
درجة الحرارة 23°درجة مئوية
الرطوبة 83%
ضغط 1012 hPa
الرؤية 10 كم أو أكثر

METAR: YBCS 161830Z AUTO 28003KT 9999 // NCD 23/20 Q1012

زمن: 04:55 (18:55 UTC)

توقعات

تاريخ ووقت الإصدار 1ساعة و 21 دقيقة قبل الساعة 17:34UTC
التوقعات صالحة من16 الساعة 18 UTC إلى 17 الساعة 18 UTC
ريح 5 عقدةمن اتجاهات متغيرة
الرؤية 10 كم أو أكثر
غيوم متفرقة على ارتفاع 2000 قدم
غيوم متفرقة على ارتفاع 3500 قدم
زخات من الأمطار الخفيفة
من 17 الساعة 0000 UTC
ريح 11 عقدة من الشمال الشرقي
الرؤية 10 كم أو أكثر
غيوم قليلة على ارتفاع 2500 قدم
من 17 الساعة 0800 UTC
ريح 5 عقدةمن اتجاهات متغيرة
الرؤية 10 كم أو أكثر
غيوم متفرقة على ارتفاع 2000 قدم
غيوم متفرقة على ارتفاع 3500 قدم
زخات من الأمطار الخفيفة

TAF: YBCS 161734Z 1618/1718 VRB05KT 9999 -SHRA SCT020 SCT035 FM170000 04011KT 9999 FEW025 FM170800 VRB05KT 9999 -SHRA SCT020 SCT035

أرصاد الطقس والتوقعات من أكثر من 4000 مطار (تقارير الطقس للمطار METAR والتنبؤ بالطقس بالمطارTAF).

المحطات المتاحة هي النقط الصفراء والحمراء على الخريطة.

حرك المؤشر فوق النقطة لمعرفة اسم المحطة.

ثم انقر لمعرفة أرصاد وتوقعات الطقس.

لتغيير الخارطة: اضغط على الأزرار الخضراء مع رمز الصليب الأسود للتكبير. على الزر الأخضر مع شرطة للتصغير، أو على الأسهم الخضراء للخرائط المجاورة.


METAR-TAF: